sensor_id;sensor_type;location;lat;lon;timestamp;P1;durP1;ratioP1;P2;durP2;ratioP2
9080;SDS011;13509;50.760;6.080;2023-12-22T00:00:07;17.93;;;3.37;;
9080;SDS011;13509;50.760;6.080;2023-12-22T00:02:44;15.53;;;2.40;;
9080;SDS011;13509;50.760;6.080;2023-12-22T00:05:15;13.10;;;2.50;;
9080;SDS011;13509;50.760;6.080;2023-12-22T00:07:44;16.30;;;3.03;;
9080;SDS011;13509;50.760;6.080;2023-12-22T00:10:13;18.43;;;3.20;;
9080;SDS011;13509;50.760;6.080;2023-12-22T00:12:43;11.03;;;2.57;;
9080;SDS011;13509;50.760;6.080;2023-12-22T00:15:13;13.37;;;2.93;;
9080;SDS011;13509;50.760;6.080;2023-12-22T00:17:41;12.07;;;4.07;;
9080;SDS011;13509;50.760;6.080;2023-12-22T00:20:09;16.60;;;2.97;;
9080;SDS011;13509;50.760;6.080;2023-12-22T00:22:40;12.03;;;2.73;;
9080;SDS011;13509;50.760;6.080;2023-12-22T00:25:08;10.93;;;2.30;;
9080;SDS011;13509;50.760;6.080;2023-12-22T00:27:37;9.63;;;2.17;;
9080;SDS011;13509;50.760;6.080;2023-12-22T00:30:06;11.87;;;2.70;;
9080;SDS011;13509;50.760;6.080;2023-12-22T00:32:53;8.97;;;1.70;;
9080;SDS011;13509;50.760;6.080;2023-12-22T00:35:27;9.00;;;2.10;;
9080;SDS011;13509;50.760;6.080;2023-12-22T00:37:57;8.70;;;1.90;;
9080;SDS011;13509;50.760;6.080;2023-12-22T00:40:30;10.90;;;2.23;;
9080;SDS011;13509;50.760;6.080;2023-12-22T00:42:59;13.63;;;2.30;;
9080;SDS011;13509;50.760;6.080;2023-12-22T00:45:27;11.97;;;2.53;;
9080;SDS011;13509;50.760;6.080;2023-12-22T00:47:57;8.77;;;2.40;;
9080;SDS011;13509;50.760;6.080;2023-12-22T00:50:25;18.07;;;2.57;;
9080;SDS011;13509;50.760;6.080;2023-12-22T00:52:53;11.30;;;2.90;;
9080;SDS011;13509;50.760;6.080;2023-12-22T00:55:22;13.43;;;3.57;;
9080;SDS011;13509;50.760;6.080;2023-12-22T00:57:59;7.27;;;2.20;;
9080;SDS011;13509;50.760;6.080;2023-12-22T01:00:29;12.10;;;2.23;;
9080;SDS011;13509;50.760;6.080;2023-12-22T01:03:00;10.20;;;2.07;;
9080;SDS011;13509;50.760;6.080;2023-12-22T01:05:29;8.67;;;2.10;;
9080;SDS011;13509;50.760;6.080;2023-12-22T01:07:57;9.53;;;2.53;;
9080;SDS011;13509;50.760;6.080;2023-12-22T01:10:28;11.37;;;2.53;;
9080;SDS011;13509;50.760;6.080;2023-12-22T01:13:00;13.57;;;3.13;;
9080;SDS011;13509;50.760;6.080;2023-12-22T01:15:30;8.70;;;3.10;;
9080;SDS011;13509;50.760;6.080;2023-12-22T01:18:00;11.70;;;2.70;;
9080;SDS011;13509;50.760;6.080;2023-12-22T01:20:28;9.77;;;2.70;;
9080;SDS011;13509;50.760;6.080;2023-12-22T01:22:56;10.73;;;2.30;;
9080;SDS011;13509;50.760;6.080;2023-12-22T01:25:25;12.93;;;3.00;;
9080;SDS011;13509;50.760;6.080;2023-12-22T01:27:53;11.07;;;2.60;;
9080;SDS011;13509;50.760;6.080;2023-12-22T01:30:21;9.90;;;2.17;;
9080;SDS011;13509;50.760;6.080;2023-12-22T01:32:50;12.13;;;2.43;;
9080;SDS011;13509;50.760;6.080;2023-12-22T01:35:19;9.67;;;2.00;;
9080;SDS011;13509;50.760;6.080;2023-12-22T01:37:48;5.50;;;1.50;;
9080;SDS011;13509;50.760;6.080;2023-12-22T01:40:22;8.60;;;1.80;;
9080;SDS011;13509;50.760;6.080;2023-12-22T01:42:51;9.57;;;2.40;;
9080;SDS011;13509;50.760;6.080;2023-12-22T01:45:19;7.00;;;1.90;;
9080;SDS011;13509;50.760;6.080;2023-12-22T01:47:47;13.70;;;2.20;;
9080;SDS011;13509;50.760;6.080;2023-12-22T01:50:16;10.77;;;2.20;;
9080;SDS011;13509;50.760;6.080;2023-12-22T01:52:46;9.80;;;2.17;;
9080;SDS011;13509;50.760;6.080;2023-12-22T01:55:15;8.03;;;2.23;;
9080;SDS011;13509;50.760;6.080;2023-12-22T01:57:44;5.20;;;2.10;;
9080;SDS011;13509;50.760;6.080;2023-12-22T02:00:23;10.03;;;2.10;;
9080;SDS011;13509;50.760;6.080;2023-12-22T02:03:06;9.43;;;1.70;;
9080;SDS011;13509;50.760;6.080;2023-12-22T02:05:34;4.90;;;1.60;;
9080;SDS011;13509;50.760;6.080;2023-12-22T02:08:05;8.67;;;2.03;;
9080;SDS011;13509;50.760;6.080;2023-12-22T02:10:33;8.53;;;2.53;;
9080;SDS011;13509;50.760;6.080;2023-12-22T02:13:02;8.70;;;2.10;;
9080;SDS011;13509;50.760;6.080;2023-12-22T02:15:30;7.40;;;2.20;;
9080;SDS011;13509;50.760;6.080;2023-12-22T02:18:01;8.93;;;2.17;;
9080;SDS011;13509;50.760;6.080;2023-12-22T02:20:30;9.17;;;2.30;;
9080;SDS011;13509;50.760;6.080;2023-12-22T02:23:01;10.20;;;2.53;;
9080;SDS011;13509;50.760;6.080;2023-12-22T02:25:29;11.10;;;2.50;;
9080;SDS011;13509;50.760;6.080;2023-12-22T02:27:58;9.33;;;1.73;;
9080;SDS011;13509;50.760;6.080;2023-12-22T02:30:31;10.63;;;2.20;;
9080;SDS011;13509;50.760;6.080;2023-12-22T02:33:01;9.23;;;2.40;;
9080;SDS011;13509;50.760;6.080;2023-12-22T02:35:32;11.23;;;2.50;;
9080;SDS011;13509;50.760;6.080;2023-12-22T02:38:03;14.40;;;2.80;;
9080;SDS011;13509;50.760;6.080;2023-12-22T02:40:32;10.17;;;2.23;;
9080;SDS011;13509;50.760;6.080;2023-12-22T02:43:02;12.43;;;2.63;;
9080;SDS011;13509;50.760;6.080;2023-12-22T02:45:30;13.77;;;2.60;;
9080;SDS011;13509;50.760;6.080;2023-12-22T02:47:58;14.33;;;3.10;;
9080;SDS011;13509;50.760;6.080;2023-12-22T02:50:27;13.57;;;2.93;;
9080;SDS011;13509;50.760;6.080;2023-12-22T02:52:55;23.80;;;3.63;;
9080;SDS011;13509;50.760;6.080;2023-12-22T02:55:25;18.13;;;3.47;;
9080;SDS011;13509;50.760;6.080;2023-12-22T02:57:53;13.67;;;2.77;;
9080;SDS011;13509;50.760;6.080;2023-12-22T03:00:22;20.90;;;3.53;;
9080;SDS011;13509;50.760;6.080;2023-12-22T03:02:50;19.13;;;3.50;;
9080;SDS011;13509;50.760;6.080;2023-12-22T03:05:18;13.57;;;3.07;;
9080;SDS011;13509;50.760;6.080;2023-12-22T03:07:50;18.03;;;2.93;;
9080;SDS011;13509;50.760;6.080;2023-12-22T03:10:20;12.13;;;2.73;;
9080;SDS011;13509;50.760;6.080;2023-12-22T03:12:56;8.97;;;2.40;;
9080;SDS011;13509;50.760;6.080;2023-12-22T03:15:31;16.90;;;2.90;;
9080;SDS011;13509;50.760;6.080;2023-12-22T03:18:04;12.23;;;2.77;;
9080;SDS011;13509;50.760;6.080;2023-12-22T03:20:33;11.80;;;2.43;;
9080;SDS011;13509;50.760;6.080;2023-12-22T03:23:01;8.27;;;2.00;;
9080;SDS011;13509;50.760;6.080;2023-12-22T03:25:29;12.37;;;2.00;;
9080;SDS011;13509;50.760;6.080;2023-12-22T03:27:59;10.10;;;2.40;;
9080;SDS011;13509;50.760;6.080;2023-12-22T03:30:32;7.07;;;2.27;;
9080;SDS011;13509;50.760;6.080;2023-12-22T03:33:02;7.30;;;2.17;;
9080;SDS011;13509;50.760;6.080;2023-12-22T03:35:32;10.77;;;2.40;;
9080;SDS011;13509;50.760;6.080;2023-12-22T03:38:01;16.77;;;2.90;;
9080;SDS011;13509;50.760;6.080;2023-12-22T03:40:29;16.97;;;3.10;;
9080;SDS011;13509;50.760;6.080;2023-12-22T03:42:59;19.77;;;3.10;;
9080;SDS011;13509;50.760;6.080;2023-12-22T03:45:27;13.07;;;3.20;;
9080;SDS011;13509;50.760;6.080;2023-12-22T03:47:56;15.60;;;3.57;;
9080;SDS011;13509;50.760;6.080;2023-12-22T03:50:24;15.33;;;3.83;;
9080;SDS011;13509;50.760;6.080;2023-12-22T03:52:52;12.97;;;3.20;;
9080;SDS011;13509;50.760;6.080;2023-12-22T03:55:21;14.67;;;3.53;;
9080;SDS011;13509;50.760;6.080;2023-12-22T03:57:49;18.97;;;3.40;;
9080;SDS011;13509;50.760;6.080;2023-12-22T04:00:19;22.53;;;3.60;;
9080;SDS011;13509;50.760;6.080;2023-12-22T04:02:47;21.33;;;4.70;;
9080;SDS011;13509;50.760;6.080;2023-12-22T04:05:16;16.67;;;3.30;;
9080;SDS011;13509;50.760;6.080;2023-12-22T04:07:44;17.83;;;3.17;;
9080;SDS011;13509;50.760;6.080;2023-12-22T04:10:15;18.40;;;3.40;;
9080;SDS011;13509;50.760;6.080;2023-12-22T04:12:44;18.80;;;3.10;;
9080;SDS011;13509;50.760;6.080;2023-12-22T04:15:12;16.43;;;3.33;;
9080;SDS011;13509;50.760;6.080;2023-12-22T04:17:42;18.03;;;3.57;;
9080;SDS011;13509;50.760;6.080;2023-12-22T04:20:10;19.53;;;4.10;;
9080;SDS011;13509;50.760;6.080;2023-12-22T04:22:39;17.73;;;3.23;;
9080;SDS011;13509;50.760;6.080;2023-12-22T04:25:10;11.57;;;2.63;;
9080;SDS011;13509;50.760;6.080;2023-12-22T04:27:42;13.43;;;3.23;;
9080;SDS011;13509;50.760;6.080;2023-12-22T04:30:15;11.00;;;2.13;;
9080;SDS011;13509;50.760;6.080;2023-12-22T04:32:45;11.90;;;2.37;;
9080;SDS011;13509;50.760;6.080;2023-12-22T04:35:13;19.23;;;3.37;;
9080;SDS011;13509;50.760;6.080;2023-12-22T04:37:42;14.17;;;3.03;;
9080;SDS011;13509;50.760;6.080;2023-12-22T04:40:10;15.37;;;2.90;;
9080;SDS011;13509;50.760;6.080;2023-12-22T04:42:39;12.67;;;3.07;;
9080;SDS011;13509;50.760;6.080;2023-12-22T04:45:07;17.27;;;2.97;;
9080;SDS011;13509;50.760;6.080;2023-12-22T04:47:36;14.50;;;2.53;;
9080;SDS011;13509;50.760;6.080;2023-12-22T04:50:06;15.93;;;3.73;;
9080;SDS011;13509;50.760;6.080;2023-12-22T04:52:34;9.93;;;2.33;;
9080;SDS011;13509;50.760;6.080;2023-12-22T04:55:07;11.13;;;2.53;;
9080;SDS011;13509;50.760;6.080;2023-12-22T04:57:42;7.03;;;2.17;;
9080;SDS011;13509;50.760;6.080;2023-12-22T05:00:27;13.07;;;2.87;;
9080;SDS011;13509;50.760;6.080;2023-12-22T05:02:55;12.73;;;2.63;;
9080;SDS011;13509;50.760;6.080;2023-12-22T05:05:25;11.53;;;2.20;;
9080;SDS011;13509;50.760;6.080;2023-12-22T05:07:53;14.63;;;2.87;;
9080;SDS011;13509;50.760;6.080;2023-12-22T05:10:22;13.30;;;3.17;;
9080;SDS011;13509;50.760;6.080;2023-12-22T05:12:50;12.63;;;2.33;;
9080;SDS011;13509;50.760;6.080;2023-12-22T05:15:18;12.00;;;2.93;;
9080;SDS011;13509;50.760;6.080;2023-12-22T05:17:47;7.00;;;1.90;;
9080;SDS011;13509;50.760;6.080;2023-12-22T05:20:16;18.00;;;3.07;;
9080;SDS011;13509;50.760;6.080;2023-12-22T05:22:45;13.63;;;2.77;;
9080;SDS011;13509;50.760;6.080;2023-12-22T05:25:14;13.20;;;2.77;;
9080;SDS011;13509;50.760;6.080;2023-12-22T05:27:44;16.40;;;2.97;;
9080;SDS011;13509;50.760;6.080;2023-12-22T05:30:23;12.73;;;2.70;;
9080;SDS011;13509;50.760;6.080;2023-12-22T05:32:54;14.57;;;2.73;;
9080;SDS011;13509;50.760;6.080;2023-12-22T05:35:24;13.37;;;2.87;;
9080;SDS011;13509;50.760;6.080;2023-12-22T05:38:00;9.13;;;2.90;;
9080;SDS011;13509;50.760;6.080;2023-12-22T05:40:28;8.77;;;2.23;;
9080;SDS011;13509;50.760;6.080;2023-12-22T05:43:02;7.90;;;2.00;;
9080;SDS011;13509;50.760;6.080;2023-12-22T05:45:30;9.73;;;2.73;;
9080;SDS011;13509;50.760;6.080;2023-12-22T05:47:58;10.80;;;2.77;;
9080;SDS011;13509;50.760;6.080;2023-12-22T05:50:30;10.00;;;2.93;;
9080;SDS011;13509;50.760;6.080;2023-12-22T05:53:00;18.63;;;3.43;;
9080;SDS011;13509;50.760;6.080;2023-12-22T05:55:28;13.53;;;3.83;;
9080;SDS011;13509;50.760;6.080;2023-12-22T05:57:56;15.83;;;3.10;;
9080;SDS011;13509;50.760;6.080;2023-12-22T06:00:25;15.03;;;3.40;;
9080;SDS011;13509;50.760;6.080;2023-12-22T06:02:53;15.93;;;3.30;;
9080;SDS011;13509;50.760;6.080;2023-12-22T06:05:25;15.53;;;3.40;;
9080;SDS011;13509;50.760;6.080;2023-12-22T06:08:05;19.83;;;3.80;;
9080;SDS011;13509;50.760;6.080;2023-12-22T06:10:36;14.33;;;3.50;;
9080;SDS011;13509;50.760;6.080;2023-12-22T06:13:04;15.57;;;3.70;;
9080;SDS011;13509;50.760;6.080;2023-12-22T06:15:32;21.23;;;3.90;;
9080;SDS011;13509;50.760;6.080;2023-12-22T06:18:01;18.73;;;3.60;;
9080;SDS011;13509;50.760;6.080;2023-12-22T06:20:29;12.60;;;2.60;;
9080;SDS011;13509;50.760;6.080;2023-12-22T06:22:57;16.70;;;4.20;;
9080;SDS011;13509;50.760;6.080;2023-12-22T06:25:27;16.67;;;3.57;;
9080;SDS011;13509;50.760;6.080;2023-12-22T06:27:56;19.63;;;3.53;;
9080;SDS011;13509;50.760;6.080;2023-12-22T06:30:24;20.70;;;3.73;;
9080;SDS011;13509;50.760;6.080;2023-12-22T06:32:53;19.57;;;3.50;;
9080;SDS011;13509;50.760;6.080;2023-12-22T06:35:21;18.27;;;4.23;;
9080;SDS011;13509;50.760;6.080;2023-12-22T06:38:03;19.40;;;4.20;;
9080;SDS011;13509;50.760;6.080;2023-12-22T06:40:37;26.07;;;4.23;;
9080;SDS011;13509;50.760;6.080;2023-12-22T06:43:05;19.30;;;5.47;;
9080;SDS011;13509;50.760;6.080;2023-12-22T06:45:36;29.23;;;4.63;;
9080;SDS011;13509;50.760;6.080;2023-12-22T06:48:06;24.10;;;4.33;;
9080;SDS011;13509;50.760;6.080;2023-12-22T06:50:35;27.23;;;5.60;;
9080;SDS011;13509;50.760;6.080;2023-12-22T06:53:06;28.27;;;5.00;;
9080;SDS011;13509;50.760;6.080;2023-12-22T06:55:48;26.77;;;4.47;;
9080;SDS011;13509;50.760;6.080;2023-12-22T06:58:20;25.07;;;4.43;;
9080;SDS011;13509;50.760;6.080;2023-12-22T07:00:55;25.30;;;3.67;;
9080;SDS011;13509;50.760;6.080;2023-12-22T07:03:23;25.50;;;4.20;;
9080;SDS011;13509;50.760;6.080;2023-12-22T07:05:52;26.07;;;5.00;;
9080;SDS011;13509;50.760;6.080;2023-12-22T07:08:20;24.50;;;4.63;;
9080;SDS011;13509;50.760;6.080;2023-12-22T07:10:50;19.97;;;3.60;;
9080;SDS011;13509;50.760;6.080;2023-12-22T07:13:18;23.90;;;4.10;;
9080;SDS011;13509;50.760;6.080;2023-12-22T07:15:47;26.53;;;4.50;;
9080;SDS011;13509;50.760;6.080;2023-12-22T07:18:17;18.50;;;4.67;;
9080;SDS011;13509;50.760;6.080;2023-12-22T07:20:46;19.00;;;4.40;;
9080;SDS011;13509;50.760;6.080;2023-12-22T07:23:14;19.50;;;4.53;;
9080;SDS011;13509;50.760;6.080;2023-12-22T07:25:43;17.40;;;4.40;;
9080;SDS011;13509;50.760;6.080;2023-12-22T07:28:13;30.83;;;4.37;;
9080;SDS011;13509;50.760;6.080;2023-12-22T07:30:43;25.03;;;5.43;;
9080;SDS011;13509;50.760;6.080;2023-12-22T07:33:11;24.13;;;5.97;;
9080;SDS011;13509;50.760;6.080;2023-12-22T07:35:39;20.40;;;4.43;;
9080;SDS011;13509;50.760;6.080;2023-12-22T07:38:10;23.03;;;4.67;;
9080;SDS011;13509;50.760;6.080;2023-12-22T07:40:39;18.53;;;4.27;;
9080;SDS011;13509;50.760;6.080;2023-12-22T07:43:08;24.07;;;4.70;;
9080;SDS011;13509;50.760;6.080;2023-12-22T07:45:38;22.43;;;5.00;;
9080;SDS011;13509;50.760;6.080;2023-12-22T07:48:06;31.87;;;5.10;;
9080;SDS011;13509;50.760;6.080;2023-12-22T07:50:35;29.40;;;5.83;;
9080;SDS011;13509;50.760;6.080;2023-12-22T07:53:04;26.07;;;5.07;;
9080;SDS011;13509;50.760;6.080;2023-12-22T07:55:34;21.53;;;4.27;;
9080;SDS011;13509;50.760;6.080;2023-12-22T07:58:04;21.00;;;4.97;;
9080;SDS011;13509;50.760;6.080;2023-12-22T08:00:33;32.93;;;5.57;;
9080;SDS011;13509;50.760;6.080;2023-12-22T08:03:03;24.60;;;5.17;;
9080;SDS011;13509;50.760;6.080;2023-12-22T08:05:32;23.80;;;4.77;;
9080;SDS011;13509;50.760;6.080;2023-12-22T08:08:00;26.43;;;4.53;;
9080;SDS011;13509;50.760;6.080;2023-12-22T08:10:29;18.00;;;4.20;;
9080;SDS011;13509;50.760;6.080;2023-12-22T08:12:57;25.00;;;4.70;;
9080;SDS011;13509;50.760;6.080;2023-12-22T08:15:25;21.93;;;4.47;;
9080;SDS011;13509;50.760;6.080;2023-12-22T08:18:04;23.10;;;4.07;;
9080;SDS011;13509;50.760;6.080;2023-12-22T08:20:33;17.00;;;4.37;;
9080;SDS011;13509;50.760;6.080;2023-12-22T08:23:07;21.37;;;4.10;;
9080;SDS011;13509;50.760;6.080;2023-12-22T08:25:38;28.03;;;4.77;;
9080;SDS011;13509;50.760;6.080;2023-12-22T08:28:10;14.87;;;4.67;;
9080;SDS011;13509;50.760;6.080;2023-12-22T08:30:39;25.47;;;5.00;;
9080;SDS011;13509;50.760;6.080;2023-12-22T08:33:10;25.23;;;4.10;;
9080;SDS011;13509;50.760;6.080;2023-12-22T08:35:39;13.63;;;4.13;;
9080;SDS011;13509;50.760;6.080;2023-12-22T08:38:08;21.13;;;4.07;;
9080;SDS011;13509;50.760;6.080;2023-12-22T08:40:39;14.03;;;3.27;;
9080;SDS011;13509;50.760;6.080;2023-12-22T08:43:08;20.47;;;3.83;;
9080;SDS011;13509;50.760;6.080;2023-12-22T08:45:36;12.90;;;2.50;;
9080;SDS011;13509;50.760;6.080;2023-12-22T08:48:05;19.33;;;4.57;;
9080;SDS011;13509;50.760;6.080;2023-12-22T08:50:36;13.90;;;3.70;;
9080;SDS011;13509;50.760;6.080;2023-12-22T08:53:04;15.07;;;3.50;;
9080;SDS011;13509;50.760;6.080;2023-12-22T08:55:33;12.60;;;3.60;;
9080;SDS011;13509;50.760;6.080;2023-12-22T08:58:01;11.53;;;3.20;;
9080;SDS011;13509;50.760;6.080;2023-12-22T09:00:31;14.80;;;3.43;;
9080;SDS011;13509;50.760;6.080;2023-12-22T09:02:59;13.27;;;3.77;;
9080;SDS011;13509;50.760;6.080;2023-12-22T09:05:28;9.93;;;3.20;;
9080;SDS011;13509;50.760;6.080;2023-12-22T09:08:00;6.93;;;2.73;;
9080;SDS011;13509;50.760;6.080;2023-12-22T09:10:30;9.53;;;3.63;;
9080;SDS011;13509;50.760;6.080;2023-12-22T09:12:59;11.73;;;2.97;;
9080;SDS011;13509;50.760;6.080;2023-12-22T09:15:28;13.23;;;2.90;;
9080;SDS011;13509;50.760;6.080;2023-12-22T09:17:56;16.47;;;3.43;;
9080;SDS011;13509;50.760;6.080;2023-12-22T09:20:24;8.47;;;2.83;;
9080;SDS011;13509;50.760;6.080;2023-12-22T09:22:55;8.90;;;2.50;;
9080;SDS011;13509;50.760;6.080;2023-12-22T09:25:25;9.57;;;3.10;;
9080;SDS011;13509;50.760;6.080;2023-12-22T09:27:53;7.67;;;2.40;;
9080;SDS011;13509;50.760;6.080;2023-12-22T09:30:21;6.57;;;2.83;;
9080;SDS011;13509;50.760;6.080;2023-12-22T09:32:50;7.90;;;2.80;;
9080;SDS011;13509;50.760;6.080;2023-12-22T09:35:19;10.97;;;2.73;;
9080;SDS011;13509;50.760;6.080;2023-12-22T09:37:48;12.77;;;2.70;;
9080;SDS011;13509;50.760;6.080;2023-12-22T09:40:17;11.00;;;2.83;;
9080;SDS011;13509;50.760;6.080;2023-12-22T09:42:47;13.23;;;2.73;;
9080;SDS011;13509;50.760;6.080;2023-12-22T09:45:16;10.77;;;2.83;;
9080;SDS011;13509;50.760;6.080;2023-12-22T09:47:46;12.43;;;2.90;;
9080;SDS011;13509;50.760;6.080;2023-12-22T09:50:15;9.47;;;2.50;;
9080;SDS011;13509;50.760;6.080;2023-12-22T09:52:43;5.90;;;2.20;;
9080;SDS011;13509;50.760;6.080;2023-12-22T09:55:12;10.13;;;2.60;;
9080;SDS011;13509;50.760;6.080;2023-12-22T09:57:41;6.53;;;2.23;;
9080;SDS011;13509;50.760;6.080;2023-12-22T10:00:12;5.20;;;1.40;;
9080;SDS011;13509;50.760;6.080;2023-12-22T10:02:42;6.30;;;1.60;;
9080;SDS011;13509;50.760;6.080;2023-12-22T10:05:12;2.90;;;1.57;;
9080;SDS011;13509;50.760;6.080;2023-12-22T10:07:41;7.80;;;1.90;;
9080;SDS011;13509;50.760;6.080;2023-12-22T10:10:09;3.10;;;1.67;;
9080;SDS011;13509;50.760;6.080;2023-12-22T10:12:38;4.67;;;2.23;;
9080;SDS011;13509;50.760;6.080;2023-12-22T10:15:07;2.63;;;1.90;;
9080;SDS011;13509;50.760;6.080;2023-12-22T10:17:38;5.17;;;2.13;;
9080;SDS011;13509;50.760;6.080;2023-12-22T10:20:07;3.83;;;2.07;;
9080;SDS011;13509;50.760;6.080;2023-12-22T10:22:36;4.87;;;2.60;;
9080;SDS011;13509;50.760;6.080;2023-12-22T10:25:05;4.23;;;2.37;;
9080;SDS011;13509;50.760;6.080;2023-12-22T10:27:34;3.67;;;2.20;;
9080;SDS011;13509;50.760;6.080;2023-12-22T10:30:04;3.70;;;2.40;;
9080;SDS011;13509;50.760;6.080;2023-12-22T10:32:32;3.83;;;2.30;;
9080;SDS011;13509;50.760;6.080;2023-12-22T10:35:02;3.70;;;1.90;;
9080;SDS011;13509;50.760;6.080;2023-12-22T10:37:31;4.50;;;2.30;;
9080;SDS011;13509;50.760;6.080;2023-12-22T10:40:00;3.00;;;2.30;;
9080;SDS011;13509;50.760;6.080;2023-12-22T10:42:31;2.27;;;1.53;;
9080;SDS011;13509;50.760;6.080;2023-12-22T10:45:01;2.23;;;1.80;;
9080;SDS011;13509;50.760;6.080;2023-12-22T10:47:30;2.63;;;1.80;;
9080;SDS011;13509;50.760;6.080;2023-12-22T10:50:03;3.73;;;2.03;;
9080;SDS011;13509;50.760;6.080;2023-12-22T10:52:31;3.77;;;2.00;;
9080;SDS011;13509;50.760;6.080;2023-12-22T10:55:00;3.10;;;2.20;;
9080;SDS011;13509;50.760;6.080;2023-12-22T10:57:29;2.90;;;2.23;;
9080;SDS011;13509;50.760;6.080;2023-12-22T11:00:05;2.33;;;2.10;;
9080;SDS011;13509;50.760;6.080;2023-12-22T11:02:34;2.57;;;2.30;;
9080;SDS011;13509;50.760;6.080;2023-12-22T11:05:04;4.30;;;1.70;;
9080;SDS011;13509;50.760;6.080;2023-12-22T11:07:35;2.13;;;1.80;;
9080;SDS011;13509;50.760;6.080;2023-12-22T11:10:04;3.63;;;1.70;;
9080;SDS011;13509;50.760;6.080;2023-12-22T11:12:34;1.60;;;1.50;;
9080;SDS011;13509;50.760;6.080;2023-12-22T11:15:04;2.00;;;1.13;;
9080;SDS011;13509;50.760;6.080;2023-12-22T11:17:34;2.10;;;1.30;;
9080;SDS011;13509;50.760;6.080;2023-12-22T11:20:07;2.93;;;1.40;;
9080;SDS011;13509;50.760;6.080;2023-12-22T11:22:37;1.87;;;1.20;;
9080;SDS011;13509;50.760;6.080;2023-12-22T11:25:06;1.67;;;1.40;;
9080;SDS011;13509;50.760;6.080;2023-12-22T11:27:40;3.37;;;1.50;;
9080;SDS011;13509;50.760;6.080;2023-12-22T11:30:09;2.57;;;1.90;;
9080;SDS011;13509;50.760;6.080;2023-12-22T11:32:39;5.93;;;2.23;;
9080;SDS011;13509;50.760;6.080;2023-12-22T11:35:09;4.37;;;2.23;;
9080;SDS011;13509;50.760;6.080;2023-12-22T11:37:38;6.67;;;2.20;;
9080;SDS011;13509;50.760;6.080;2023-12-22T11:40:07;4.53;;;2.27;;
9080;SDS011;13509;50.760;6.080;2023-12-22T11:42:37;3.30;;;2.00;;
9080;SDS011;13509;50.760;6.080;2023-12-22T11:45:10;6.03;;;2.50;;
9080;SDS011;13509;50.760;6.080;2023-12-22T11:47:42;4.23;;;1.77;;
9080;SDS011;13509;50.760;6.080;2023-12-22T11:50:12;3.63;;;1.93;;
9080;SDS011;13509;50.760;6.080;2023-12-22T11:52:40;3.57;;;1.77;;
9080;SDS011;13509;50.760;6.080;2023-12-22T11:55:09;5.20;;;1.70;;
9080;SDS011;13509;50.760;6.080;2023-12-22T11:57:37;3.27;;;1.70;;
9080;SDS011;13509;50.760;6.080;2023-12-22T12:00:07;3.13;;;1.73;;
9080;SDS011;13509;50.760;6.080;2023-12-22T12:02:38;4.33;;;1.80;;
9080;SDS011;13509;50.760;6.080;2023-12-22T12:05:07;3.77;;;2.03;;
9080;SDS011;13509;50.760;6.080;2023-12-22T12:07:38;5.67;;;1.90;;
9080;SDS011;13509;50.760;6.080;2023-12-22T12:10:08;3.70;;;1.80;;
9080;SDS011;13509;50.760;6.080;2023-12-22T12:12:36;3.33;;;2.00;;
9080;SDS011;13509;50.760;6.080;2023-12-22T12:15:06;4.07;;;2.13;;
9080;SDS011;13509;50.760;6.080;2023-12-22T12:17:38;5.07;;;1.97;;
9080;SDS011;13509;50.760;6.080;2023-12-22T12:20:07;4.30;;;1.73;;
9080;SDS011;13509;50.760;6.080;2023-12-22T12:22:38;7.67;;;2.03;;
9080;SDS011;13509;50.760;6.080;2023-12-22T12:25:07;3.60;;;1.90;;
9080;SDS011;13509;50.760;6.080;2023-12-22T12:27:53;5.20;;;2.40;;
9080;SDS011;13509;50.760;6.080;2023-12-22T12:30:29;2.13;;;1.83;;
9080;SDS011;13509;50.760;6.080;2023-12-22T12:32:58;6.40;;;1.73;;
9080;SDS011;13509;50.760;6.080;2023-12-22T12:35:29;2.40;;;1.80;;
9080;SDS011;13509;50.760;6.080;2023-12-22T12:38:00;5.20;;;1.70;;
9080;SDS011;13509;50.760;6.080;2023-12-22T12:40:28;1.47;;;1.37;;
9080;SDS011;13509;50.760;6.080;2023-12-22T12:42:59;2.13;;;1.70;;
9080;SDS011;13509;50.760;6.080;2023-12-22T12:45:27;1.90;;;1.33;;
9080;SDS011;13509;50.760;6.080;2023-12-22T12:47:56;2.87;;;1.63;;
9080;SDS011;13509;50.760;6.080;2023-12-22T12:50:27;6.37;;;1.73;;
9080;SDS011;13509;50.760;6.080;2023-12-22T12:52:56;3.93;;;1.63;;
9080;SDS011;13509;50.760;6.080;2023-12-22T12:55:26;2.60;;;1.47;;
9080;SDS011;13509;50.760;6.080;2023-12-22T12:57:55;4.47;;;1.40;;
9080;SDS011;13509;50.760;6.080;2023-12-22T13:00:24;4.07;;;2.03;;
9080;SDS011;13509;50.760;6.080;2023-12-22T13:02:53;3.23;;;1.77;;
9080;SDS011;13509;50.760;6.080;2023-12-22T13:05:22;4.97;;;1.60;;
9080;SDS011;13509;50.760;6.080;2023-12-22T13:07:51;4.27;;;1.47;;
9080;SDS011;13509;50.760;6.080;2023-12-22T13:10:20;3.70;;;1.30;;
9080;SDS011;13509;50.760;6.080;2023-12-22T13:12:50;3.40;;;1.50;;
9080;SDS011;13509;50.760;6.080;2023-12-22T13:15:20;3.07;;;1.47;;
9080;SDS011;13509;50.760;6.080;2023-12-22T13:17:48;1.67;;;1.57;;
9080;SDS011;13509;50.760;6.080;2023-12-22T13:20:18;4.37;;;1.73;;
9080;SDS011;13509;50.760;6.080;2023-12-22T13:22:46;1.77;;;1.60;;
9080;SDS011;13509;50.760;6.080;2023-12-22T13:25:14;4.20;;;1.60;;
9080;SDS011;13509;50.760;6.080;2023-12-22T13:27:43;5.30;;;1.93;;
9080;SDS011;13509;50.760;6.080;2023-12-22T13:30:14;5.10;;;2.00;;
9080;SDS011;13509;50.760;6.080;2023-12-22T13:32:42;5.83;;;1.90;;
9080;SDS011;13509;50.760;6.080;2023-12-22T13:35:12;3.40;;;1.50;;
9080;SDS011;13509;50.760;6.080;2023-12-22T13:37:41;9.10;;;2.00;;
9080;SDS011;13509;50.760;6.080;2023-12-22T13:40:10;4.53;;;1.73;;
9080;SDS011;13509;50.760;6.080;2023-12-22T13:42:39;3.90;;;1.80;;
9080;SDS011;13509;50.760;6.080;2023-12-22T13:45:10;5.00;;;1.60;;
9080;SDS011;13509;50.760;6.080;2023-12-22T13:47:41;4.07;;;1.50;;
9080;SDS011;13509;50.760;6.080;2023-12-22T13:50:13;3.70;;;1.90;;
9080;SDS011;13509;50.760;6.080;2023-12-22T13:52:42;2.17;;;1.53;;
9080;SDS011;13509;50.760;6.080;2023-12-22T13:55:11;4.50;;;1.70;;
9080;SDS011;13509;50.760;6.080;2023-12-22T13:57:40;6.93;;;1.83;;
9080;SDS011;13509;50.760;6.080;2023-12-22T14:02:57;5.33;;;2.73;;
9080;SDS011;13509;50.760;6.080;2023-12-22T14:05:25;5.07;;;2.03;;
9080;SDS011;13509;50.760;6.080;2023-12-22T14:08:00;4.63;;;1.70;;
9080;SDS011;13509;50.760;6.080;2023-12-22T14:10:28;8.43;;;4.10;;
9080;SDS011;13509;50.760;6.080;2023-12-22T14:12:57;5.93;;;2.50;;
9080;SDS011;13509;50.760;6.080;2023-12-22T14:15:26;7.17;;;4.40;;
9080;SDS011;13509;50.760;6.080;2023-12-22T14:18:08;3.17;;;2.13;;
9080;SDS011;13509;50.760;6.080;2023-12-22T14:20:37;5.23;;;2.60;;
9080;SDS011;13509;50.760;6.080;2023-12-22T14:23:08;9.73;;;4.13;;
9080;SDS011;13509;50.760;6.080;2023-12-22T14:25:42;5.00;;;1.73;;
9080;SDS011;13509;50.760;6.080;2023-12-22T14:28:11;5.90;;;3.43;;
9080;SDS011;13509;50.760;6.080;2023-12-22T14:30:39;4.93;;;3.40;;
9080;SDS011;13509;50.760;6.080;2023-12-22T14:33:10;7.13;;;4.00;;
9080;SDS011;13509;50.760;6.080;2023-12-22T14:35:39;6.33;;;2.63;;
9080;SDS011;13509;50.760;6.080;2023-12-22T14:38:08;7.27;;;2.37;;
9080;SDS011;13509;50.760;6.080;2023-12-22T14:40:36;6.77;;;2.53;;
9080;SDS011;13509;50.760;6.080;2023-12-22T14:43:04;5.20;;;2.47;;
9080;SDS011;13509;50.760;6.080;2023-12-22T14:45:33;3.13;;;2.07;;
9080;SDS011;13509;50.760;6.080;2023-12-22T14:48:01;3.40;;;2.30;;
9080;SDS011;13509;50.760;6.080;2023-12-22T14:50:31;4.80;;;2.53;;
9080;SDS011;13509;50.760;6.080;2023-12-22T14:53:00;6.10;;;2.40;;
9080;SDS011;13509;50.760;6.080;2023-12-22T14:55:28;4.87;;;2.10;;
9080;SDS011;13509;50.760;6.080;2023-12-22T14:57:58;5.47;;;2.67;;
9080;SDS011;13509;50.760;6.080;2023-12-22T15:00:26;3.67;;;2.17;;
9080;SDS011;13509;50.760;6.080;2023-12-22T15:02:55;3.00;;;2.00;;
9080;SDS011;13509;50.760;6.080;2023-12-22T15:05:23;6.13;;;2.43;;
9080;SDS011;13509;50.760;6.080;2023-12-22T15:08:00;7.13;;;2.67;;
9080;SDS011;13509;50.760;6.080;2023-12-22T15:10:28;10.30;;;2.30;;
9080;SDS011;13509;50.760;6.080;2023-12-22T15:12:57;6.03;;;2.20;;